sensor_id;sensor_type;location;lat;lon;timestamp;temperature;humidity
21805;DHT22;11064;47.102;15.452;2022-08-19T04:03:20;16.70;99.90
21805;DHT22;11064;47.102;15.452;2022-08-19T04:05:46;16.70;99.90
21805;DHT22;11064;47.102;15.452;2022-08-19T04:08:13;16.60;99.90
21805;DHT22;11064;47.102;15.452;2022-08-19T04:10:41;16.60;99.90
21805;DHT22;11064;47.102;15.452;2022-08-19T04:13:07;16.80;99.90
21805;DHT22;11064;47.102;15.452;2022-08-19T04:15:40;17.00;99.90
21805;DHT22;11064;47.102;15.452;2022-08-19T04:18:08;17.00;99.90
21805;DHT22;11064;47.102;15.452;2022-08-19T04:20:43;17.10;99.90
21805;DHT22;11064;47.102;15.452;2022-08-19T04:23:08;17.30;99.90
21805;DHT22;11064;47.102;15.452;2022-08-19T04:25:37;17.30;99.90
21805;DHT22;11064;47.102;15.452;2022-08-19T04:28:03;17.40;99.90
21805;DHT22;11064;47.102;15.452;2022-08-19T04:30:28;17.40;99.90
21805;DHT22;11064;47.102;15.452;2022-08-19T04:32:54;17.60;99.90
21805;DHT22;11064;47.102;15.452;2022-08-19T04:35:20;17.60;99.90
21805;DHT22;11064;47.102;15.452;2022-08-19T04:37:45;17.70;99.90
21805;DHT22;11064;47.102;15.452;2022-08-19T04:40:11;17.60;99.90
21805;DHT22;11064;47.102;15.452;2022-08-19T04:42:56;17.70;99.90
21805;DHT22;11064;47.102;15.452;2022-08-19T04:45:22;17.80;99.90
21805;DHT22;11064;47.102;15.452;2022-08-19T04:47:47;18.00;99.90
21805;DHT22;11064;47.102;15.452;2022-08-19T04:50:14;18.20;99.90
21805;DHT22;11064;47.102;15.452;2022-08-19T04:52:40;18.20;99.90
21805;DHT22;11064;47.102;15.452;2022-08-19T04:55:10;18.20;99.90
21805;DHT22;11064;47.102;15.452;2022-08-19T04:57:37;18.30;99.90
21805;DHT22;11064;47.102;15.452;2022-08-19T05:00:10;18.20;99.90
21805;DHT22;11064;47.102;15.452;2022-08-19T05:02:36;18.30;99.90
21805;DHT22;11064;47.102;15.452;2022-08-19T05:05:02;18.40;99.90
21805;DHT22;11064;47.102;15.452;2022-08-19T05:07:28;18.50;99.90
21805;DHT22;11064;47.102;15.452;2022-08-19T05:09:54;18.60;99.90
21805;DHT22;11064;47.102;15.452;2022-08-19T05:12:21;18.80;99.90
21805;DHT22;11064;47.102;15.452;2022-08-19T05:14:46;19.00;99.90
21805;DHT22;11064;47.102;15.452;2022-08-19T05:17:13;19.10;99.90
21805;DHT22;11064;47.102;15.452;2022-08-19T05:19:39;19.20;99.90
21805;DHT22;11064;47.102;15.452;2022-08-19T05:22:23;19.30;99.90
21805;DHT22;11064;47.102;15.452;2022-08-19T05:25:06;19.40;99.90
21805;DHT22;11064;47.102;15.452;2022-08-19T05:27:32;19.30;99.90
21805;DHT22;11064;47.102;15.452;2022-08-19T05:29:59;19.20;99.90
21805;DHT22;11064;47.102;15.452;2022-08-19T05:32:25;19.10;99.90
21805;DHT22;11064;47.102;15.452;2022-08-19T05:34:51;19.00;99.90
21805;DHT22;11064;47.102;15.452;2022-08-19T05:37:17;19.00;99.90
21805;DHT22;11064;47.102;15.452;2022-08-19T05:39:43;19.10;99.90
21805;DHT22;11064;47.102;15.452;2022-08-19T05:42:11;19.20;99.90
21805;DHT22;11064;47.102;15.452;2022-08-19T05:44:43;19.40;99.90
21805;DHT22;11064;47.102;15.452;2022-08-19T05:47:11;19.60;99.90
21805;DHT22;11064;47.102;15.452;2022-08-19T05:49:38;19.80;99.90
21805;DHT22;11064;47.102;15.452;2022-08-19T05:52:06;19.90;99.90
21805;DHT22;11064;47.102;15.452;2022-08-19T05:54:33;19.90;99.90
21805;DHT22;11064;47.102;15.452;2022-08-19T05:57:01;19.90;99.90
21805;DHT22;11064;47.102;15.452;2022-08-19T05:59:27;19.90;99.90
21805;DHT22;11064;47.102;15.452;2022-08-19T06:01:54;20.00;99.90
21805;DHT22;11064;47.102;15.452;2022-08-19T06:04:22;19.90;99.90
21805;DHT22;11064;47.102;15.452;2022-08-19T06:06:51;19.80;99.90
21805;DHT22;11064;47.102;15.452;2022-08-19T06:09:18;19.80;99.90
21805;DHT22;11064;47.102;15.452;2022-08-19T06:11:53;19.70;99.90
21805;DHT22;11064;47.102;15.452;2022-08-19T06:14:22;19.60;99.90
21805;DHT22;11064;47.102;15.452;2022-08-19T06:16:49;19.70;99.90
21805;DHT22;11064;47.102;15.452;2022-08-19T06:19:18;19.70;99.90
21805;DHT22;11064;47.102;15.452;2022-08-19T06:21:46;19.80;99.90
21805;DHT22;11064;47.102;15.452;2022-08-19T06:24:16;19.90;99.90
21805;DHT22;11064;47.102;15.452;2022-08-19T06:26:44;20.00;99.90
21805;DHT22;11064;47.102;15.452;2022-08-19T06:29:13;20.20;99.90
21805;DHT22;11064;47.102;15.452;2022-08-19T06:31:42;20.50;99.90
21805;DHT22;11064;47.102;15.452;2022-08-19T06:34:09;20.70;99.90
21805;DHT22;11064;47.102;15.452;2022-08-19T06:36:39;21.00;99.90
21805;DHT22;11064;47.102;15.452;2022-08-19T06:39:07;21.20;99.90
21805;DHT22;11064;47.102;15.452;2022-08-19T06:41:35;21.50;99.90
21805;DHT22;11064;47.102;15.452;2022-08-19T06:44:02;21.70;99.90
21805;DHT22;11064;47.102;15.452;2022-08-19T06:46:29;22.20;99.90
21805;DHT22;11064;47.102;15.452;2022-08-19T06:48:56;22.60;99.90
21805;DHT22;11064;47.102;15.452;2022-08-19T06:51:23;22.60;99.90
21805;DHT22;11064;47.102;15.452;2022-08-19T06:53:51;23.00;99.90
21805;DHT22;11064;47.102;15.452;2022-08-19T06:56:23;23.30;99.90
21805;DHT22;11064;47.102;15.452;2022-08-19T06:58:51;23.40;98.60
21805;DHT22;11064;47.102;15.452;2022-08-19T07:01:19;23.20;99.00
21805;DHT22;11064;47.102;15.452;2022-08-19T07:03:45;23.30;99.50
21805;DHT22;11064;47.102;15.452;2022-08-19T07:06:16;23.70;98.80
21805;DHT22;11064;47.102;15.452;2022-08-19T07:08:45;23.90;98.40
21805;DHT22;11064;47.102;15.452;2022-08-19T07:11:16;23.90;97.10
21805;DHT22;11064;47.102;15.452;2022-08-19T07:13:46;23.90;96.50
21805;DHT22;11064;47.102;15.452;2022-08-19T07:16:16;23.60;96.30
21805;DHT22;11064;47.102;15.452;2022-08-19T07:18:43;23.20;99.70
21805;DHT22;11064;47.102;15.452;2022-08-19T07:21:18;22.90;99.80
21805;DHT22;11064;47.102;15.452;2022-08-19T07:23:45;22.60;99.90
21805;DHT22;11064;47.102;15.452;2022-08-19T07:26:20;22.20;99.90
21805;DHT22;11064;47.102;15.452;2022-08-19T07:28:47;21.80;99.90
21805;DHT22;11064;47.102;15.452;2022-08-19T07:31:18;21.30;99.90
21805;DHT22;11064;47.102;15.452;2022-08-19T07:33:46;20.70;99.90
21805;DHT22;11064;47.102;15.452;2022-08-19T07:36:14;20.20;99.90
21805;DHT22;11064;47.102;15.452;2022-08-19T07:38:41;19.90;99.90
21805;DHT22;11064;47.102;15.452;2022-08-19T07:41:12;19.60;99.90
21805;DHT22;11064;47.102;15.452;2022-08-19T07:43:39;19.50;99.90
21805;DHT22;11064;47.102;15.452;2022-08-19T07:46:05;19.40;99.90
21805;DHT22;11064;47.102;15.452;2022-08-19T07:48:32;19.30;99.90
21805;DHT22;11064;47.102;15.452;2022-08-19T07:51:01;19.30;99.90
21805;DHT22;11064;47.102;15.452;2022-08-19T07:53:28;19.20;99.90
21805;DHT22;11064;47.102;15.452;2022-08-19T07:55:55;19.20;99.90
21805;DHT22;11064;47.102;15.452;2022-08-19T07:58:24;19.20;99.90
21805;DHT22;11064;47.102;15.452;2022-08-19T08:00:51;19.20;99.90
21805;DHT22;11064;47.102;15.452;2022-08-19T08:03:19;19.20;99.90
21805;DHT22;11064;47.102;15.452;2022-08-19T08:05:46;19.10;99.90
21805;DHT22;11064;47.102;15.452;2022-08-19T08:08:30;19.00;99.90
21805;DHT22;11064;47.102;15.452;2022-08-19T08:11:04;18.90;99.90
21805;DHT22;11064;47.102;15.452;2022-08-19T08:13:29;18.80;99.90
21805;DHT22;11064;47.102;15.452;2022-08-19T08:15:56;18.70;99.90
21805;DHT22;11064;47.102;15.452;2022-08-19T08:18:23;18.60;99.90
21805;DHT22;11064;47.102;15.452;2022-08-19T08:20:50;18.60;99.90
21805;DHT22;11064;47.102;15.452;2022-08-19T08:23:15;18.50;99.90
21805;DHT22;11064;47.102;15.452;2022-08-19T08:25:57;18.50;99.90
21805;DHT22;11064;47.102;15.452;2022-08-19T08:28:24;18.40;99.90
21805;DHT22;11064;47.102;15.452;2022-08-19T08:30:50;18.50;99.90
21805;DHT22;11064;47.102;15.452;2022-08-19T08:33:19;18.60;99.90
21805;DHT22;11064;47.102;15.452;2022-08-19T08:35:47;18.70;99.90
21805;DHT22;11064;47.102;15.452;2022-08-19T08:38:14;18.80;99.90
21805;DHT22;11064;47.102;15.452;2022-08-19T08:40:47;18.80;99.90
21805;DHT22;11064;47.102;15.452;2022-08-19T08:43:22;18.80;99.90
21805;DHT22;11064;47.102;15.452;2022-08-19T08:46:12;18.90;99.90
21805;DHT22;11064;47.102;15.452;2022-08-19T08:51:24;19.10;99.90
21805;DHT22;11064;47.102;15.452;2022-08-19T08:53:52;19.20;99.90
21805;DHT22;11064;47.102;15.452;2022-08-19T08:56:19;19.30;99.90
21805;DHT22;11064;47.102;15.452;2022-08-19T08:58:51;19.40;99.90
21805;DHT22;11064;47.102;15.452;2022-08-19T09:01:19;19.70;99.90
21805;DHT22;11064;47.102;15.452;2022-08-19T09:03:46;20.00;99.90
21805;DHT22;11064;47.102;15.452;2022-08-19T09:09:26;20.70;99.90
21805;DHT22;11064;47.102;15.452;2022-08-19T09:15:47;21.10;99.90
21805;DHT22;11064;47.102;15.452;2022-08-19T09:18:14;21.30;99.90
21805;DHT22;11064;47.102;15.452;2022-08-19T09:20:42;21.60;99.90
21805;DHT22;11064;47.102;15.452;2022-08-19T09:23:08;21.60;99.90
21805;DHT22;11064;47.102;15.452;2022-08-19T09:25:36;21.70;99.90
21805;DHT22;11064;47.102;15.452;2022-08-19T09:28:02;21.90;99.90
21805;DHT22;11064;47.102;15.452;2022-08-19T09:30:32;22.20;99.90
21805;DHT22;11064;47.102;15.452;2022-08-19T09:32:59;22.40;99.90
21805;DHT22;11064;47.102;15.452;2022-08-19T09:35:27;22.60;99.90
21805;DHT22;11064;47.102;15.452;2022-08-19T09:37:55;22.50;99.90
21805;DHT22;11064;47.102;15.452;2022-08-19T09:40:22;22.50;99.90
21805;DHT22;11064;47.102;15.452;2022-08-19T09:42:48;22.20;99.90
21805;DHT22;11064;47.102;15.452;2022-08-19T09:45:15;22.30;99.90
21805;DHT22;11064;47.102;15.452;2022-08-19T09:47:42;22.30;99.90
21805;DHT22;11064;47.102;15.452;2022-08-19T09:50:11;23.10;99.90
21805;DHT22;11064;47.102;15.452;2022-08-19T09:52:37;23.50;99.90
21805;DHT22;11064;47.102;15.452;2022-08-19T09:55:05;24.10;99.90
21805;DHT22;11064;47.102;15.452;2022-08-19T09:57:32;24.80;99.90
21805;DHT22;11064;47.102;15.452;2022-08-19T09:59:58;25.00;99.90
21805;DHT22;11064;47.102;15.452;2022-08-19T10:02:24;24.80;99.90
21805;DHT22;11064;47.102;15.452;2022-08-19T10:04:51;24.90;99.90
21805;DHT22;11064;47.102;15.452;2022-08-19T10:07:35;25.00;99.90
21805;DHT22;11064;47.102;15.452;2022-08-19T10:10:05;25.40;99.90
21805;DHT22;11064;47.102;15.452;2022-08-19T10:12:33;25.50;99.90
21805;DHT22;11064;47.102;15.452;2022-08-19T10:15:00;25.80;99.90
21805;DHT22;11064;47.102;15.452;2022-08-19T10:17:26;26.00;99.90
21805;DHT22;11064;47.102;15.452;2022-08-19T10:19:52;26.20;99.90
21805;DHT22;11064;47.102;15.452;2022-08-19T10:22:19;26.10;99.90
21805;DHT22;11064;47.102;15.452;2022-08-19T10:24:48;25.90;99.90
21805;DHT22;11064;47.102;15.452;2022-08-19T10:27:15;25.60;99.90
21805;DHT22;11064;47.102;15.452;2022-08-19T10:29:41;25.30;99.90
21805;DHT22;11064;47.102;15.452;2022-08-19T10:32:08;25.30;99.90
21805;DHT22;11064;47.102;15.452;2022-08-19T10:34:36;25.30;99.90
21805;DHT22;11064;47.102;15.452;2022-08-19T10:37:04;25.00;99.90
21805;DHT22;11064;47.102;15.452;2022-08-19T10:39:35;24.90;99.90
21805;DHT22;11064;47.102;15.452;2022-08-19T10:42:08;24.60;99.90
21805;DHT22;11064;47.102;15.452;2022-08-19T10:44:36;24.30;99.90
21805;DHT22;11064;47.102;15.452;2022-08-19T10:47:02;24.20;99.90
21805;DHT22;11064;47.102;15.452;2022-08-19T10:49:29;24.40;99.90
21805;DHT22;11064;47.102;15.452;2022-08-19T10:51:56;24.60;99.90
21805;DHT22;11064;47.102;15.452;2022-08-19T10:54:40;25.20;99.90
21805;DHT22;11064;47.102;15.452;2022-08-19T10:57:24;26.10;99.90
21805;DHT22;11064;47.102;15.452;2022-08-19T10:59:57;26.70;98.20
21805;DHT22;11064;47.102;15.452;2022-08-19T11:02:23;27.10;99.90
21805;DHT22;11064;47.102;15.452;2022-08-19T11:04:49;27.40;98.00
21805;DHT22;11064;47.102;15.452;2022-08-19T11:07:16;26.60;96.80
21805;DHT22;11064;47.102;15.452;2022-08-19T11:09:42;26.70;92.20
21805;DHT22;11064;47.102;15.452;2022-08-19T11:12:09;26.80;90.30
21805;DHT22;11064;47.102;15.452;2022-08-19T11:14:35;27.00;91.20
21805;DHT22;11064;47.102;15.452;2022-08-19T11:17:03;26.80;88.50
21805;DHT22;11064;47.102;15.452;2022-08-19T11:19:29;27.20;87.60
21805;DHT22;11064;47.102;15.452;2022-08-19T11:21:55;26.90;82.20
21805;DHT22;11064;47.102;15.452;2022-08-19T11:24:24;26.70;86.00
21805;DHT22;11064;47.102;15.452;2022-08-19T11:26:51;27.30;86.40
21805;DHT22;11064;47.102;15.452;2022-08-19T11:29:20;27.40;81.20
21805;DHT22;11064;47.102;15.452;2022-08-19T11:31:49;27.20;84.10
21805;DHT22;11064;47.102;15.452;2022-08-19T11:34:22;27.20;84.40
21805;DHT22;11064;47.102;15.452;2022-08-19T11:36:49;27.60;81.20
21805;DHT22;11064;47.102;15.452;2022-08-19T11:39:19;27.60;74.70
21805;DHT22;11064;47.102;15.452;2022-08-19T11:41:45;27.70;70.20
21805;DHT22;11064;47.102;15.452;2022-08-19T11:44:11;27.60;73.10
21805;DHT22;11064;47.102;15.452;2022-08-19T11:46:40;27.70;73.40
21805;DHT22;11064;47.102;15.452;2022-08-19T11:49:07;27.90;74.00
21805;DHT22;11064;47.102;15.452;2022-08-19T11:51:35;28.10;77.70
21805;DHT22;11064;47.102;15.452;2022-08-19T11:54:03;28.10;74.30
21805;DHT22;11064;47.102;15.452;2022-08-19T11:56:29;28.40;72.80
21805;DHT22;11064;47.102;15.452;2022-08-19T11:58:56;28.50;66.80
21805;DHT22;11064;47.102;15.452;2022-08-19T12:01:24;28.50;71.10
21805;DHT22;11064;47.102;15.452;2022-08-19T12:03:52;28.70;70.20
21805;DHT22;11064;47.102;15.452;2022-08-19T12:06:22;29.20;70.00
21805;DHT22;11064;47.102;15.452;2022-08-19T12:09:04;29.30;67.10
21805;DHT22;11064;47.102;15.452;2022-08-19T12:11:31;29.20;65.30
21805;DHT22;11064;47.102;15.452;2022-08-19T12:13:57;28.80;66.90
21805;DHT22;11064;47.102;15.452;2022-08-19T12:16:26;28.80;65.90
21805;DHT22;11064;47.102;15.452;2022-08-19T12:18:54;28.90;66.70
21805;DHT22;11064;47.102;15.452;2022-08-19T12:21:24;29.00;67.80
21805;DHT22;11064;47.102;15.452;2022-08-19T12:23:53;29.10;63.00
21805;DHT22;11064;47.102;15.452;2022-08-19T12:26:20;28.70;63.40
21805;DHT22;11064;47.102;15.452;2022-08-19T12:28:46;28.70;64.10
21805;DHT22;11064;47.102;15.452;2022-08-19T12:31:13;28.50;62.90
21805;DHT22;11064;47.102;15.452;2022-08-19T12:33:40;28.90;61.40
21805;DHT22;11064;47.102;15.452;2022-08-19T12:36:09;29.70;59.20
21805;DHT22;11064;47.102;15.452;2022-08-19T12:38:36;29.70;57.80
21805;DHT22;11064;47.102;15.452;2022-08-19T12:41:04;29.60;59.40
21805;DHT22;11064;47.102;15.452;2022-08-19T12:43:30;29.40;58.30
21805;DHT22;11064;47.102;15.452;2022-08-19T12:45:56;28.70;58.90
21805;DHT22;11064;47.102;15.452;2022-08-19T12:48:22;28.40;63.40
21805;DHT22;11064;47.102;15.452;2022-08-19T12:50:48;28.30;61.00
21805;DHT22;11064;47.102;15.452;2022-08-19T12:53:15;28.10;61.40
21805;DHT22;11064;47.102;15.452;2022-08-19T12:55:41;28.40;63.00
21805;DHT22;11064;47.102;15.452;2022-08-19T12:58:09;28.40;60.10
21805;DHT22;11064;47.102;15.452;2022-08-19T13:00:36;28.60;61.00
21805;DHT22;11064;47.102;15.452;2022-08-19T13:03:02;28.90;60.20
21805;DHT22;11064;47.102;15.452;2022-08-19T13:05:31;29.10;59.30
21805;DHT22;11064;47.102;15.452;2022-08-19T13:07:58;29.20;59.20
21805;DHT22;11064;47.102;15.452;2022-08-19T13:10:28;29.40;58.90
21805;DHT22;11064;47.102;15.452;2022-08-19T13:12:55;29.40;57.80
21805;DHT22;11064;47.102;15.452;2022-08-19T13:15:22;29.10;58.90
21805;DHT22;11064;47.102;15.452;2022-08-19T13:17:50;28.60;59.30
21805;DHT22;11064;47.102;15.452;2022-08-19T13:20:18;28.30;60.40
21805;DHT22;11064;47.102;15.452;2022-08-19T13:22:45;28.00;60.40
21805;DHT22;11064;47.102;15.452;2022-08-19T13:25:12;27.80;60.60
21805;DHT22;11064;47.102;15.452;2022-08-19T13:27:39;27.50;59.80
21805;DHT22;11064;47.102;15.452;2022-08-19T13:30:08;27.20;63.20
21805;DHT22;11064;47.102;15.452;2022-08-19T13:32:53;27.20;62.80
21805;DHT22;11064;47.102;15.452;2022-08-19T13:35:43;27.40;63.60
21805;DHT22;11064;47.102;15.452;2022-08-19T13:38:10;27.60;64.40
21805;DHT22;11064;47.102;15.452;2022-08-19T13:40:36;27.90;64.00
21805;DHT22;11064;47.102;15.452;2022-08-19T13:43:04;28.00;61.50
21805;DHT22;11064;47.102;15.452;2022-08-19T13:45:32;28.10;61.80
21805;DHT22;11064;47.102;15.452;2022-08-19T13:48:04;28.30;62.00
21805;DHT22;11064;47.102;15.452;2022-08-19T13:50:38;28.40;59.50
21805;DHT22;11064;47.102;15.452;2022-08-19T13:53:04;28.70;59.00
21805;DHT22;11064;47.102;15.452;2022-08-19T13:55:30;28.80;59.40
21805;DHT22;11064;47.102;15.452;2022-08-19T13:57:59;28.60;58.60
21805;DHT22;11064;47.102;15.452;2022-08-19T14:00:28;28.40;59.50
21805;DHT22;11064;47.102;15.452;2022-08-19T14:02:55;28.50;59.80
21805;DHT22;11064;47.102;15.452;2022-08-19T14:05:23;28.80;58.80
21805;DHT22;11064;47.102;15.452;2022-08-19T14:07:49;29.00;57.80
21805;DHT22;11064;47.102;15.452;2022-08-19T14:10:16;29.30;56.40
21805;DHT22;11064;47.102;15.452;2022-08-19T14:12:42;29.30;55.70
21805;DHT22;11064;47.102;15.452;2022-08-19T14:15:09;29.60;55.70
21805;DHT22;11064;47.102;15.452;2022-08-19T14:17:38;29.90;55.00
21805;DHT22;11064;47.102;15.452;2022-08-19T14:20:07;30.10;55.20
21805;DHT22;11064;47.102;15.452;2022-08-19T14:22:35;29.90;55.20
21805;DHT22;11064;47.102;15.452;2022-08-19T14:25:03;29.80;56.00
21805;DHT22;11064;47.102;15.452;2022-08-19T14:27:29;29.70;55.20
21805;DHT22;11064;47.102;15.452;2022-08-19T14:29:55;29.20;56.80
21805;DHT22;11064;47.102;15.452;2022-08-19T14:32:21;28.80;56.20
21805;DHT22;11064;47.102;15.452;2022-08-19T14:34:47;28.90;56.80
21805;DHT22;11064;47.102;15.452;2022-08-19T14:37:14;28.50;57.40
21805;DHT22;11064;47.102;15.452;2022-08-19T14:39:42;28.60;57.50
21805;DHT22;11064;47.102;15.452;2022-08-19T14:42:10;28.60;58.10
21805;DHT22;11064;47.102;15.452;2022-08-19T14:44:36;28.40;57.70
21805;DHT22;11064;47.102;15.452;2022-08-19T14:47:02;28.30;58.60
21805;DHT22;11064;47.102;15.452;2022-08-19T14:49:28;28.10;59.20
21805;DHT22;11064;47.102;15.452;2022-08-19T14:51:54;28.10;58.60
21805;DHT22;11064;47.102;15.452;2022-08-19T14:54:20;28.00;59.30
21805;DHT22;11064;47.102;15.452;2022-08-19T14:56:47;28.10;59.10
21805;DHT22;11064;47.102;15.452;2022-08-19T14:59:13;28.30;59.10
21805;DHT22;11064;47.102;15.452;2022-08-19T15:01:39;28.40;59.40
21805;DHT22;11064;47.102;15.452;2022-08-19T15:04:05;28.40;59.60
21805;DHT22;11064;47.102;15.452;2022-08-19T15:06:31;28.50;59.90
21805;DHT22;11064;47.102;15.452;2022-08-19T15:08:57;28.70;59.90
21805;DHT22;11064;47.102;15.452;2022-08-19T15:11:25;28.90;60.30
21805;DHT22;11064;47.102;15.452;2022-08-19T15:13:52;29.00;58.90
21805;DHT22;11064;47.102;15.452;2022-08-19T15:16:19;29.00;57.70
21805;DHT22;11064;47.102;15.452;2022-08-19T15:18:48;28.70;58.40
21805;DHT22;11064;47.102;15.452;2022-08-19T15:21:15;28.60;58.50
21805;DHT22;11064;47.102;15.452;2022-08-19T15:23:49;28.40;59.80
21805;DHT22;11064;47.102;15.452;2022-08-19T15:26:16;28.50;61.00
21805;DHT22;11064;47.102;15.452;2022-08-19T15:28:43;28.80;59.50
21805;DHT22;11064;47.102;15.452;2022-08-19T15:31:09;28.90;58.70
21805;DHT22;11064;47.102;15.452;2022-08-19T15:33:37;28.70;58.30
21805;DHT22;11064;47.102;15.452;2022-08-19T15:36:04;28.20;59.60
21805;DHT22;11064;47.102;15.452;2022-08-19T15:38:31;27.70;63.30
21805;DHT22;11064;47.102;15.452;2022-08-19T15:41:00;27.20;64.30
21805;DHT22;11064;47.102;15.452;2022-08-19T15:43:45;26.80;66.30
21805;DHT22;11064;47.102;15.452;2022-08-19T15:46:11;26.40;67.50
21805;DHT22;11064;47.102;15.452;2022-08-19T15:48:37;26.10;69.50
21805;DHT22;11064;47.102;15.452;2022-08-19T15:51:03;25.90;71.00
21805;DHT22;11064;47.102;15.452;2022-08-19T15:53:29;25.70;71.50
21805;DHT22;11064;47.102;15.452;2022-08-19T15:55:55;25.50;71.00
21805;DHT22;11064;47.102;15.452;2022-08-19T15:58:20;25.50;70.80
21805;DHT22;11064;47.102;15.452;2022-08-19T16:01:06;25.50;70.40
21805;DHT22;11064;47.102;15.452;2022-08-19T16:03:53;25.50;72.70
21805;DHT22;11064;47.102;15.452;2022-08-19T16:06:41;25.70;73.10
21805;DHT22;11064;47.102;15.452;2022-08-19T16:09:08;25.70;72.70
21805;DHT22;11064;47.102;15.452;2022-08-19T16:11:34;25.70;72.80
21805;DHT22;11064;47.102;15.452;2022-08-19T16:14:01;25.50;71.80
21805;DHT22;11064;47.102;15.452;2022-08-19T16:16:30;25.40;73.00
21805;DHT22;11064;47.102;15.452;2022-08-19T16:18:59;25.20;74.30
21805;DHT22;11064;47.102;15.452;2022-08-19T16:21:27;25.10;75.40
21805;DHT22;11064;47.102;15.452;2022-08-19T16:23:59;24.90;76.40
21805;DHT22;11064;47.102;15.452;2022-08-19T16:26:26;24.80;76.60
21805;DHT22;11064;47.102;15.452;2022-08-19T16:28:57;24.70;77.50
21805;DHT22;11064;47.102;15.452;2022-08-19T16:31:24;24.60;78.70
21805;DHT22;11064;47.102;15.452;2022-08-19T16:33:50;24.50;79.90
21805;DHT22;11064;47.102;15.452;2022-08-19T16:36:16;24.40;80.10
21805;DHT22;11064;47.102;15.452;2022-08-19T16:38:42;24.30;82.10
21805;DHT22;11064;47.102;15.452;2022-08-19T16:41:11;24.20;82.80
21805;DHT22;11064;47.102;15.452;2022-08-19T16:43:40;24.10;84.00
21805;DHT22;11064;47.102;15.452;2022-08-19T16:46:07;24.00;85.70
21805;DHT22;11064;47.102;15.452;2022-08-19T16:48:34;23.90;87.90
21805;DHT22;11064;47.102;15.452;2022-08-19T16:51:03;23.80;90.30
21805;DHT22;11064;47.102;15.452;2022-08-19T16:53:31;23.70;90.30
21805;DHT22;11064;47.102;15.452;2022-08-19T16:55:58;23.60;90.80
21805;DHT22;11064;47.102;15.452;2022-08-19T16:58:28;23.50;91.30
21805;DHT22;11064;47.102;15.452;2022-08-19T17:00:55;23.50;92.30
21805;DHT22;11064;47.102;15.452;2022-08-19T17:03:21;23.50;91.80
21805;DHT22;11064;47.102;15.452;2022-08-19T17:05:52;23.50;91.70
21805;DHT22;11064;47.102;15.452;2022-08-19T17:08:24;23.60;92.30
21805;DHT22;11064;47.102;15.452;2022-08-19T17:10:55;23.50;93.40
21805;DHT22;11064;47.102;15.452;2022-08-19T17:13:23;23.50;96.30
21805;DHT22;11064;47.102;15.452;2022-08-19T17:15:49;23.40;99.90
21805;DHT22;11064;47.102;15.452;2022-08-19T17:18:16;23.40;99.90
21805;DHT22;11064;47.102;15.452;2022-08-19T17:20:43;23.30;99.90
21805;DHT22;11064;47.102;15.452;2022-08-19T17:23:11;23.10;99.90
21805;DHT22;11064;47.102;15.452;2022-08-19T17:25:37;22.90;99.90
21805;DHT22;11064;47.102;15.452;2022-08-19T17:28:09;22.70;99.90
21805;DHT22;11064;47.102;15.452;2022-08-19T17:30:35;22.50;99.90
21805;DHT22;11064;47.102;15.452;2022-08-19T17:33:03;22.30;99.90
21805;DHT22;11064;47.102;15.452;2022-08-19T17:35:29;22.10;99.90
21805;DHT22;11064;47.102;15.452;2022-08-19T17:37:55;21.90;99.90
21805;DHT22;11064;47.102;15.452;2022-08-19T17:40:22;21.80;99.90
21805;DHT22;11064;47.102;15.452;2022-08-19T17:42:49;21.80;99.90
21805;DHT22;11064;47.102;15.452;2022-08-19T17:45:15;21.80;99.90
21805;DHT22;11064;47.102;15.452;2022-08-19T17:47:42;21.70;99.90
21805;DHT22;11064;47.102;15.452;2022-08-19T17:50:10;21.70;99.90
21805;DHT22;11064;47.102;15.452;2022-08-19T17:52:38;21.50;99.90
21805;DHT22;11064;47.102;15.452;2022-08-19T17:55:05;21.50;99.90
21805;DHT22;11064;47.102;15.452;2022-08-19T17:57:32;21.40;99.90
21805;DHT22;11064;47.102;15.452;2022-08-19T17:59:58;21.30;99.90
21805;DHT22;11064;47.102;15.452;2022-08-19T18:02:24;21.20;99.90
21805;DHT22;11064;47.102;15.452;2022-08-19T18:04:50;21.10;99.90
21805;DHT22;11064;47.102;15.452;2022-08-19T18:07:17;20.90;99.90
21805;DHT22;11064;47.102;15.452;2022-08-19T18:09:46;20.70;99.90
21805;DHT22;11064;47.102;15.452;2022-08-19T18:12:23;20.60;99.90
21805;DHT22;11064;47.102;15.452;2022-08-19T18:14:51;20.50;99.90
21805;DHT22;11064;47.102;15.452;2022-08-19T18:17:17;20.50;99.90
21805;DHT22;11064;47.102;15.452;2022-08-19T18:19:47;20.40;99.90
21805;DHT22;11064;47.102;15.452;2022-08-19T18:22:29;20.40;99.90
21805;DHT22;11064;47.102;15.452;2022-08-19T18:24:58;20.50;99.90
21805;DHT22;11064;47.102;15.452;2022-08-19T18:27:25;20.60;99.90
21805;DHT22;11064;47.102;15.452;2022-08-19T18:29:51;20.60;99.90
21805;DHT22;11064;47.102;15.452;2022-08-19T18:32:18;20.70;99.90
21805;DHT22;11064;47.102;15.452;2022-08-19T18:34:44;20.70;99.90
21805;DHT22;11064;47.102;15.452;2022-08-19T18:37:11;20.80;99.90
21805;DHT22;11064;47.102;15.452;2022-08-19T18:39:37;20.80;99.90
21805;DHT22;11064;47.102;15.452;2022-08-19T18:42:21;20.80;99.90
21805;DHT22;11064;47.102;15.452;2022-08-19T18:45:06;20.70;99.90
21805;DHT22;11064;47.102;15.452;2022-08-19T18:47:51;20.80;99.90
21805;DHT22;11064;47.102;15.452;2022-08-19T18:50:35;20.80;99.90
21805;DHT22;11064;47.102;15.452;2022-08-19T18:53:04;20.70;99.90
21805;DHT22;11064;47.102;15.452;2022-08-19T18:55:30;20.70;99.90
21805;DHT22;11064;47.102;15.452;2022-08-19T18:57:55;20.70;99.90
21805;DHT22;11064;47.102;15.452;2022-08-19T19:00:21;20.70;99.90
21805;DHT22;11064;47.102;15.452;2022-08-19T19:02:49;20.60;99.90
21805;DHT22;11064;47.102;15.452;2022-08-19T19:05:15;20.60;99.90
21805;DHT22;11064;47.102;15.452;2022-08-19T19:07:41;20.50;99.90
21805;DHT22;11064;47.102;15.452;2022-08-19T19:10:08;20.50;99.90
21805;DHT22;11064;47.102;15.452;2022-08-19T19:12:36;20.50;99.90
21805;DHT22;11064;47.102;15.452;2022-08-19T19:15:05;20.50;99.90
21805;DHT22;11064;47.102;15.452;2022-08-19T19:17:30;20.60;99.90
21805;DHT22;11064;47.102;15.452;2022-08-19T19:19:56;20.60;99.90
21805;DHT22;11064;47.102;15.452;2022-08-19T19:22:23;20.70;99.90
21805;DHT22;11064;47.102;15.452;2022-08-19T19:24:50;20.60;99.90
21805;DHT22;11064;47.102;15.452;2022-08-19T19:27:18;20.60;99.90
21805;DHT22;11064;47.102;15.452;2022-08-19T19:29:46;20.50;99.90
21805;DHT22;11064;47.102;15.452;2022-08-19T19:32:21;20.40;99.90
21805;DHT22;11064;47.102;15.452;2022-08-19T19:34:47;20.30;99.90